createdAt,value
2018-03-01T00:00:34.725Z,-3.25
2018-03-01T00:01:15.087Z,-3.33
2018-03-01T00:01:55.699Z,-3.12
2018-03-01T00:02:36.235Z,-3.15
2018-03-01T00:03:16.654Z,-2.93
2018-03-01T00:03:57.004Z,-2.8
2018-03-01T00:04:37.371Z,-2.82
2018-03-01T00:05:17.826Z,-2.97
2018-03-01T00:05:58.279Z,-3.04
2018-03-01T00:06:39.832Z,-3.15
2018-03-01T00:07:20.264Z,-3.31
2018-03-01T00:08:00.818Z,-3.55
2018-03-01T00:08:41.390Z,-3.64
2018-03-01T00:09:22.102Z,-3.4
2018-03-01T00:10:02.278Z,-3.22
2018-03-01T00:10:42.670Z,-3.43
2018-03-01T00:11:23.276Z,-3.37
2018-03-01T00:12:03.792Z,-3.28
2018-03-01T00:12:44.683Z,-3.26
2018-03-01T00:13:24.975Z,-3.02
2018-03-01T00:14:05.632Z,-2.77
2018-03-01T00:14:45.862Z,-2.71
2018-03-01T00:15:26.573Z,-2.56
2018-03-01T00:16:06.840Z,-2.25
2018-03-01T00:16:47.178Z,-2.43
2018-03-01T00:17:27.840Z,-2.26
2018-03-01T00:18:08.114Z,-2.07
2018-03-01T00:18:48.619Z,-1.92
2018-03-01T00:19:29.109Z,-1.89
2018-03-01T00:20:09.732Z,-2.07
2018-03-01T00:20:50.245Z,-2.16
2018-03-01T00:21:30.603Z,-2.13
2018-03-01T00:22:11.674Z,-2.08
2018-03-01T00:22:52.771Z,-2.11
2018-03-01T00:23:33.677Z,-2.03
2018-03-01T00:25:48.388Z,-1.68
2018-03-01T00:26:42.380Z,-2.37
2018-03-01T00:27:22.784Z,-2.61
2018-03-01T00:28:52.757Z,-3.16
2018-03-01T00:29:33.162Z,-3.15
2018-03-01T00:30:13.563Z,-2.82
2018-03-01T00:30:53.962Z,-2.44
2018-03-01T00:31:41.056Z,-2.46
2018-03-01T00:32:21.478Z,-2.24
2018-03-01T00:33:08.475Z,-2.07
2018-03-01T00:33:55.517Z,-2.37
2018-03-01T00:34:42.580Z,-3.12
2018-03-01T00:35:22.952Z,-3.08
2018-03-01T00:36:03.260Z,-3.13
2018-03-01T00:36:57.506Z,-2.89
2018-03-01T00:37:38.021Z,-2.82
2018-03-01T00:38:18.422Z,-2.74
2018-03-01T00:38:58.821Z,-2.55
2018-03-01T00:39:39.174Z,-2.64
2018-03-01T00:40:19.596Z,-2.76
2018-03-01T00:40:59.981Z,-3.04
2018-03-01T00:41:40.438Z,-3.26
2018-03-01T00:42:20.730Z,-3.34
2018-03-01T00:43:01.211Z,-3.21
2018-03-01T00:43:47.027Z,-3.1
2018-03-01T00:44:27.349Z,-2.93
2018-03-01T00:45:07.768Z,-2.8
2018-03-01T00:45:48.145Z,-2.55
2018-03-01T00:46:28.524Z,-2.8
2018-03-01T00:48:42.262Z,-3.31
2018-03-01T00:51:05.165Z,-3.04
2018-03-01T00:51:54.013Z,-2.93
2018-03-01T00:52:43.136Z,-2.89
2018-03-01T00:53:23.477Z,-2.8
2018-03-01T00:54:03.931Z,-2.79
2018-03-01T00:54:44.306Z,-2.53
2018-03-01T00:55:24.705Z,-2.37
2018-03-01T00:56:21.670Z,-2.59
2018-03-01T00:58:20.953Z,-2.55
2018-03-01T00:59:02.242Z,-2.37
2018-03-01T00:59:52.374Z,-2.14
2018-03-01T01:00:32.768Z,-2.13
2018-03-01T01:01:13.221Z,-2.03
2018-03-01T01:01:53.710Z,-2.13
2018-03-01T01:02:50.400Z,-2.43
2018-03-01T01:03:40.342Z,-2.56
2018-03-01T01:04:38.512Z,-2.53
2018-03-01T01:05:21.448Z,-2.64
2018-03-01T01:07:39.120Z,-2.97
2018-03-01T01:08:19.400Z,-2.97
2018-03-01T01:09:05.285Z,-3.12
2018-03-01T01:09:48.386Z,-3.26
2018-03-01T01:10:28.860Z,-3.31
2018-03-01T01:12:33.010Z,-3.68
2018-03-01T01:13:13.427Z,-3.34
2018-03-01T01:13:53.844Z,-3.13
2018-03-01T01:14:43.915Z,-2.8
2018-03-01T01:15:30.286Z,-2.89
2018-03-01T01:16:10.586Z,-3.12
2018-03-01T01:16:51.105Z,-2.95
2018-03-01T01:17:46.609Z,-2.86
2018-03-01T01:18:29.579Z,-2.97
2018-03-01T01:19:09.910Z,-3.04
2018-03-01T01:19:56.911Z,-3.1
2018-03-01T01:20:37.398Z,-3.12
2018-03-01T01:21:17.746Z,-2.97
2018-03-01T01:21:58.186Z,-2.79
2018-03-01T01:22:44.304Z,-3.01
2018-03-01T01:23:39.436Z,-3.02
2018-03-01T01:24:34.416Z,-3.01
2018-03-01T01:26:58.304Z,-3.22
2018-03-01T01:27:43.062Z,-3.19
2018-03-01T01:28:23.659Z,-3.18
2018-03-01T01:29:04.118Z,-3.07
2018-03-01T01:29:45.485Z,-3.22
2018-03-01T01:30:26.081Z,-3.18
2018-03-01T01:31:06.422Z,-2.97
2018-03-01T01:31:47.490Z,-2.89
2018-03-01T01:32:27.962Z,-2.94
2018-03-01T01:33:09.055Z,-3.12
2018-03-01T01:33:49.246Z,-2.87
2018-03-01T01:34:31.475Z,-2.84
2018-03-01T01:35:11.834Z,-3.05
2018-03-01T01:35:52.283Z,-3.15
2018-03-01T01:36:33.719Z,-3.23
2018-03-01T01:37:14.449Z,-3.26
2018-03-01T01:37:56.511Z,-3.18
2018-03-01T01:38:36.943Z,-3.1
2018-03-01T01:39:17.360Z,-2.9
2018-03-01T01:39:57.724Z,-2.87
2018-03-01T01:40:38.146Z,-2.76
2018-03-01T01:41:18.654Z,-2.61
2018-03-01T01:41:59.061Z,-2.65
2018-03-01T01:42:39.404Z,-2.66
2018-03-01T01:43:19.844Z,-2.62
2018-03-01T01:44:01.097Z,-2.65
2018-03-01T01:44:42.447Z,-2.77
2018-03-01T01:45:22.826Z,-3.05
2018-03-01T01:46:03.319Z,-2.82
2018-03-01T01:46:43.902Z,-2.62
2018-03-01T01:47:24.549Z,-2.26
2018-03-01T01:48:04.960Z,-2.11
2018-03-01T01:48:45.392Z,-2.32
2018-03-01T01:49:25.823Z,-2.8
2018-03-01T01:50:06.222Z,-3.08
2018-03-01T01:50:46.772Z,-3.19
2018-03-01T01:51:27.516Z,-3.26
2018-03-01T01:52:08.176Z,-3.26
2018-03-01T01:52:50.946Z,-3.23
2018-03-01T01:53:31.367Z,-3.07
2018-03-01T01:54:13.049Z,-3.07
2018-03-01T01:54:53.332Z,-3.04
2018-03-01T01:55:33.674Z,-3
2018-03-01T01:56:14.187Z,-2.98
2018-03-01T01:56:54.654Z,-3.21
2018-03-01T01:57:35.024Z,-3.49
2018-03-01T01:58:15.469Z,-3.43
2018-03-01T01:58:55.889Z,-3.52
2018-03-01T01:59:37.195Z,-3.39
2018-03-01T02:00:17.686Z,-3.16
2018-03-01T02:00:59.156Z,-3.13
2018-03-01T02:01:39.367Z,-3.12
2018-03-01T02:02:19.760Z,-3.31
2018-03-01T02:03:00.199Z,-3.28
2018-03-01T02:03:40.605Z,-3.26
2018-03-01T02:04:21.033Z,-2.94
2018-03-01T02:05:01.700Z,-2.72
2018-03-01T02:05:41.897Z,-2.72
2018-03-01T02:06:22.307Z,-2.79
2018-03-01T02:07:03.494Z,-2.76
2018-03-01T02:07:44.757Z,-2.93
2018-03-01T02:08:25.093Z,-2.71
2018-03-01T02:09:06.703Z,-2.61
2018-03-01T02:09:47.197Z,-2.51
2018-03-01T02:10:27.641Z,-2.83
2018-03-01T02:11:08.115Z,-3.02
2018-03-01T02:11:49.500Z,-3.1
2018-03-01T02:12:29.909Z,-3.05
2018-03-01T02:13:10.464Z,-3.1
2018-03-01T02:13:51.113Z,-2.82
2018-03-01T02:14:31.470Z,-2.89
2018-03-01T02:15:11.969Z,-3.13
2018-03-01T02:15:52.290Z,-3.01
2018-03-01T02:16:33.056Z,-3.01
2018-03-01T02:17:13.474Z,-3
2018-03-01T02:17:53.895Z,-2.83
2018-03-01T02:18:34.608Z,-3.04
2018-03-01T02:19:15.255Z,-3.26
2018-03-01T02:19:55.366Z,-3.44
2018-03-01T02:20:35.782Z,-3.61
2018-03-01T02:21:16.216Z,-3.62
2018-03-01T02:21:56.783Z,-3.61
2018-03-01T02:22:36.973Z,-3.68
2018-03-01T02:23:17.415Z,-3.77
2018-03-01T02:23:58.012Z,-3.91
2018-03-01T02:24:39.036Z,-3.98
2018-03-01T02:25:19.444Z,-3.79
2018-03-01T02:25:59.898Z,-3.54
2018-03-01T02:26:40.169Z,-3.39
2018-03-01T02:27:20.621Z,-3.39
2018-03-01T02:28:01.054Z,-3.3
2018-03-01T02:28:41.472Z,-3.26
2018-03-01T02:29:21.870Z,-3.33
2018-03-01T02:30:02.280Z,-3.54
2018-03-01T02:30:42.753Z,-3.69
2018-03-01T02:31:23.654Z,-3.7
2018-03-01T02:32:03.799Z,-3.62
2018-03-01T02:32:44.198Z,-3.76
2018-03-01T02:33:24.736Z,-3.94
2018-03-01T02:34:05.088Z,-3.91
2018-03-01T02:34:45.554Z,-3.94
2018-03-01T02:35:26.116Z,-3.95
2018-03-01T02:36:06.569Z,-3.83
2018-03-01T02:36:46.864Z,-3.81
2018-03-01T02:37:27.262Z,-3.81
2018-03-01T02:38:08.037Z,-3.57
2018-03-01T02:38:48.313Z,-3.77
2018-03-01T02:39:28.716Z,-3.94
2018-03-01T02:40:09.109Z,-4.02
2018-03-01T02:40:50.574Z,-4.04
2018-03-01T02:41:30.910Z,-4.02
2018-03-01T02:42:11.291Z,-3.94
2018-03-01T02:42:52.527Z,-3.91
2018-03-01T02:43:33.142Z,-3.95
2018-03-01T02:44:13.420Z,-4.04
2018-03-01T02:44:54.015Z,-4.15
2018-03-01T02:45:36.013Z,-4.04
2018-03-01T02:46:17.229Z,-4.01
2018-03-01T02:46:57.613Z,-3.8
2018-03-01T02:47:38.918Z,-3.61
2018-03-01T02:48:19.397Z,-3.49
2018-03-01T02:48:59.984Z,-3.41
2018-03-01T02:49:40.374Z,-3.26
2018-03-01T02:50:20.811Z,-3.19
2018-03-01T02:51:01.204Z,-3.05
2018-03-01T02:51:41.998Z,-2.62
2018-03-01T02:52:22.212Z,-2.53
2018-03-01T02:53:02.654Z,-2.68
2018-03-01T02:53:43.139Z,-2.8
2018-03-01T02:54:23.533Z,-2.8
2018-03-01T02:55:04.734Z,-3.13
2018-03-01T02:55:45.469Z,-3.02
2018-03-01T02:56:25.839Z,-3.04
2018-03-01T02:57:07.082Z,-3.04
2018-03-01T02:57:49.170Z,-3.04
2018-03-01T02:58:29.324Z,-3.01
2018-03-01T02:59:09.733Z,-2.82
2018-03-01T02:59:50.212Z,-2.64
2018-03-01T03:00:30.616Z,-2.82
2018-03-01T03:01:10.994Z,-3.21
2018-03-01T03:01:51.644Z,-3.46
2018-03-01T03:02:32.485Z,-3.62
2018-03-01T03:03:13.210Z,-3.81
2018-03-01T03:03:53.743Z,-3.74
2018-03-01T03:04:34.575Z,-3.62
2018-03-01T03:05:15.147Z,-3.4
2018-03-01T03:05:55.940Z,-3.36
2018-03-01T03:06:36.438Z,-3.69
2018-03-01T03:07:16.733Z,-3.54
2018-03-01T03:07:57.180Z,-3.84
2018-03-01T03:08:37.877Z,-3.99
2018-03-01T03:09:18.481Z,-3.89
2018-03-01T03:09:58.907Z,-3.95
2018-03-01T03:10:39.354Z,-3.76
2018-03-01T03:11:19.690Z,-3.31
2018-03-01T03:12:00.111Z,-3.1
2018-03-01T03:12:40.575Z,-2.97
2018-03-01T03:13:21.110Z,-3.02
2018-03-01T03:14:01.389Z,-3.15
2018-03-01T03:14:41.818Z,-3.04
2018-03-01T03:15:22.259Z,-3.05
2018-03-01T03:16:02.620Z,-2.82
2018-03-01T03:16:43.257Z,-2.83
2018-03-01T03:17:23.558Z,-2.59
2018-03-01T03:18:03.922Z,-2.61
2018-03-01T03:18:44.470Z,-2.71
2018-03-01T03:19:24.767Z,-2.8
2018-03-01T03:20:05.312Z,-2.9
2018-03-01T03:20:47.394Z,-3
2018-03-01T03:21:27.821Z,-3.23
2018-03-01T03:22:09.053Z,-3.02
2018-03-01T03:22:50.479Z,-3.26
2018-03-01T03:23:31.003Z,-3.31
2018-03-01T03:24:11.327Z,-3.4
2018-03-01T03:24:52.367Z,-3.23
2018-03-01T03:25:33.123Z,-3.13
2018-03-01T03:26:13.262Z,-3.33
2018-03-01T03:26:53.773Z,-3.13
2018-03-01T03:27:34.241Z,-2.98
2018-03-01T03:28:14.585Z,-2.74
2018-03-01T03:28:55.206Z,-2.65
2018-03-01T03:29:35.455Z,-2.74
2018-03-01T03:30:15.998Z,-2.83
2018-03-01T03:30:56.371Z,-3.04
2018-03-01T03:31:37.375Z,-3.28
2018-03-01T03:32:17.767Z,-3.39
2018-03-01T03:32:58.174Z,-3.28
2018-03-01T03:33:39.937Z,-3.52
2018-03-01T03:34:20.358Z,-3.52
2018-03-01T03:35:00.598Z,-3.44
2018-03-01T03:35:41.045Z,-3.41
2018-03-01T03:36:21.527Z,-3.33
2018-03-01T03:37:02.193Z,-3.1
2018-03-01T03:37:42.528Z,-3.36
2018-03-01T03:38:22.952Z,-3.33
2018-03-01T03:39:03.470Z,-3.04
2018-03-01T03:39:43.900Z,-3.01
2018-03-01T03:40:24.304Z,-2.94
2018-03-01T03:41:04.748Z,-2.98
2018-03-01T03:41:45.114Z,-2.82
2018-03-01T03:42:25.525Z,-2.95
2018-03-01T03:43:05.928Z,-2.83
2018-03-01T03:43:46.365Z,-2.93
2018-03-01T03:44:26.786Z,-2.79
2018-03-01T03:45:07.206Z,-2.93
2018-03-01T03:45:47.623Z,-2.8
2018-03-01T03:46:28.917Z,-2.79
2018-03-01T03:47:09.478Z,-2.84
2018-03-01T03:47:49.981Z,-2.61
2018-03-01T03:48:30.199Z,-2.47
2018-03-01T03:49:10.559Z,-2.38
2018-03-01T03:49:50.975Z,-2.69
2018-03-01T03:50:32.400Z,-3.08
2018-03-01T03:51:14.272Z,-3.25
2018-03-01T03:51:54.558Z,-3.4
2018-03-01T03:52:35.195Z,-3.37
2018-03-01T03:53:15.511Z,-3.33
2018-03-01T03:53:56.075Z,-3.37
2018-03-01T03:54:36.367Z,-3.43
2018-03-01T03:55:16.747Z,-3.61
2018-03-01T03:55:57.161Z,-3.33
2018-03-01T03:56:37.562Z,-3.13
2018-03-01T03:57:17.982Z,-3.01
2018-03-01T03:57:58.787Z,-2.89
2018-03-01T03:58:39.063Z,-2.71
2018-03-01T03:59:19.543Z,-2.71
2018-03-01T04:00:00.025Z,-2.79
2018-03-01T04:00:40.451Z,-2.8
2018-03-01T04:01:20.778Z,-2.62
2018-03-01T04:02:01.481Z,-2.38
2018-03-01T04:02:42.255Z,-2.21
2018-03-01T04:03:22.738Z,-2.32
2018-03-01T04:04:03.111Z,-2.29
2018-03-01T04:04:43.529Z,-2.32
2018-03-01T04:05:23.783Z,-2.26
2018-03-01T04:06:04.887Z,-2.32
2018-03-01T04:06:45.273Z,-2.48
2018-03-01T04:46:49.009Z,-2.62
2018-03-01T04:49:29.622Z,-2.37
2018-03-01T04:50:15.288Z,-2.37
2018-03-01T04:50:55.552Z,-2.32
2018-03-01T04:51:36.013Z,-2.35
2018-03-01T04:52:16.557Z,-2.33
2018-03-01T04:52:57.046Z,-2.24
2018-03-01T04:53:37.446Z,-2.1
2018-03-01T04:54:18.236Z,-2.46
2018-03-01T04:54:58.616Z,-2.55
2018-03-01T04:55:39.032Z,-2.5
2018-03-01T04:56:19.477Z,-2.46
2018-03-01T04:57:00.297Z,-2.65
2018-03-01T04:57:41.058Z,-2.64
2018-03-01T04:58:21.439Z,-2.69
2018-03-01T04:59:01.825Z,-2.47
2018-03-01T04:59:42.371Z,-2.24
2018-03-01T05:00:22.859Z,-2.16
2018-03-01T05:01:03.224Z,-1.89
2018-03-01T05:01:43.936Z,-1.92
2018-03-01T05:02:24.284Z,-1.98
2018-03-01T05:03:04.543Z,-2
2018-03-01T05:03:45.269Z,-1.92
2018-03-01T05:04:25.552Z,-1.82
2018-03-01T05:05:05.989Z,-1.77
2018-03-01T05:05:46.382Z,-1.77
2018-03-01T05:06:27.084Z,-1.61
2018-03-01T05:07:07.474Z,-1.61
2018-03-01T05:07:47.886Z,-1.68
2018-03-01T05:08:28.407Z,-1.82
2018-03-01T05:09:09.053Z,-1.96
2018-03-01T05:09:49.333Z,-1.93
2018-03-01T05:10:30.097Z,-2.24
2018-03-01T05:11:10.522Z,-2.66
2018-03-01T05:11:50.978Z,-2.65
2018-03-01T05:12:31.473Z,-2.82
2018-03-01T05:13:12.129Z,-3
2018-03-01T05:13:53.661Z,-3.01
2018-03-01T05:14:34.071Z,-3.19
2018-03-01T05:15:14.576Z,-3.34
2018-03-01T05:15:55.140Z,-3.28
2018-03-01T05:16:35.826Z,-3.25
2018-03-01T05:17:16.131Z,-3.12
2018-03-01T05:17:57.157Z,-2.9
2018-03-01T05:18:37.419Z,-3.07
2018-03-01T05:19:17.842Z,-2.97
2018-03-01T05:19:58.410Z,-3
2018-03-01T05:20:38.735Z,-2.82
2018-03-01T05:21:20.033Z,-2.77
2018-03-01T05:22:00.402Z,-2.56
2018-03-01T05:22:41.051Z,-2.26
2018-03-01T05:23:21.403Z,-2.18
2018-03-01T05:24:02.449Z,-1.98
2018-03-01T05:24:42.643Z,-2.1
2018-03-01T05:25:23.101Z,-2.65
2018-03-01T05:26:03.679Z,-2.64
2018-03-01T05:26:44.313Z,-2.79
2018-03-01T05:27:25.024Z,-2.82
2018-03-01T05:28:05.669Z,-3.1
2018-03-01T05:28:46.090Z,-3.26
2018-03-01T05:29:26.770Z,-3.13
2018-03-01T05:30:07.318Z,-3.02
2018-03-01T05:30:47.756Z,-2.83
2018-03-01T05:31:28.686Z,-2.71
2018-03-01T05:32:09.057Z,-2.48
2018-03-01T05:32:49.734Z,-2.33
2018-03-01T05:33:30.221Z,-2.32
2018-03-01T05:34:11.111Z,-2.35
2018-03-01T05:34:51.532Z,-2.65
2018-03-01T05:35:31.925Z,-2.9
2018-03-01T05:36:12.329Z,-3
2018-03-01T05:36:52.902Z,-2.97
2018-03-01T05:37:34.090Z,-2.74
2018-03-01T05:38:14.838Z,-2.72
2018-03-01T05:38:55.390Z,-2.4
2018-03-01T05:39:35.702Z,-2.18
2018-03-01T05:40:16.914Z,-2.11
2018-03-01T05:40:57.708Z,-2.04
2018-03-01T05:41:38.098Z,-2.07
2018-03-01T05:42:18.940Z,-1.86
2018-03-01T05:42:59.788Z,-2.07
2018-03-01T05:43:40.381Z,-1.98
2018-03-01T05:44:22.508Z,-1.85
2018-03-01T05:45:03.562Z,-1.59
2018-03-01T05:45:43.981Z,-1.7
2018-03-01T05:46:24.369Z,-1.83
2018-03-01T05:47:04.895Z,-1.82
2018-03-01T05:47:45.411Z,-1.71
2018-03-01T05:48:26.068Z,-1.68
2018-03-01T05:49:06.483Z,-1.54
2018-03-01T05:49:46.932Z,-1.47
2018-03-01T05:50:27.444Z,-1.44
2018-03-01T05:51:08.177Z,-1.67
2018-03-01T05:51:48.556Z,-1.8
2018-03-01T05:52:29.026Z,-2.1
2018-03-01T05:53:09.619Z,-2.38
2018-03-01T05:53:49.988Z,-2.51
2018-03-01T05:54:30.808Z,-2.64
2018-03-01T05:55:11.512Z,-2.56
2018-03-01T05:55:51.845Z,-2.61
2018-03-01T05:56:32.382Z,-2.51
2018-03-01T05:57:13.480Z,-2.48
2018-03-01T05:57:54.711Z,-2.28
2018-03-01T05:58:35.070Z,-2.33
2018-03-01T05:59:15.893Z,-2.14
2018-03-01T05:59:56.144Z,-2.13
2018-03-01T06:00:36.856Z,-2.25
2018-03-01T06:01:18.136Z,-2.28
2018-03-01T06:02:00.361Z,-2.08
2018-03-01T06:02:41.069Z,-1.86
2018-03-01T06:03:21.731Z,-1.75
2018-03-01T06:04:02.259Z,-1.46
2018-03-01T06:04:42.747Z,-1.26
2018-03-01T06:06:46.066Z,-1.31
2018-03-01T06:07:28.337Z,-1.41
2018-03-01T06:08:08.546Z,-1.26
2018-03-01T06:08:49.498Z,-1.18
2018-03-01T06:09:32.713Z,-1.2
2018-03-01T06:10:12.905Z,-1
2018-03-01T06:10:53.280Z,-0.9
2018-03-01T06:11:33.684Z,-0.74
2018-03-01T06:12:14.126Z,-0.99
2018-03-01T06:12:54.632Z,-1.1
2018-03-01T06:13:35.068Z,-1.31
2018-03-01T06:14:16.207Z,-1.31
2018-03-01T06:14:57.592Z,-1.26
2018-03-01T06:15:45.143Z,-0.86
2018-03-01T06:16:25.517Z,-0.67
2018-03-01T06:17:06.437Z,-0.53
2018-03-01T06:19:06.021Z,-0.9
2018-03-01T06:19:46.058Z,-0.96
2018-03-01T06:20:26.483Z,-1.29
2018-03-01T06:21:06.835Z,-1.46
2018-03-01T06:21:47.234Z,-1.51
2018-03-01T06:22:27.703Z,-1.5
2018-03-01T06:23:08.073Z,-1.43
2018-03-01T06:23:48.510Z,-1.5
2018-03-01T06:24:28.909Z,-1.43
2018-03-01T06:25:09.281Z,-1.31
2018-03-01T06:25:49.704Z,-1.36
2018-03-01T06:26:30.064Z,-1.44
2018-03-01T06:27:10.409Z,-1.64
2018-03-01T06:27:50.853Z,-1.67
2018-03-01T06:28:31.249Z,-1.72
2018-03-01T06:29:11.604Z,-2.07
2018-03-01T06:29:52.273Z,-2.16
2018-03-01T06:30:32.692Z,-2.1
2018-03-01T06:31:13.163Z,-2.4
2018-03-01T06:31:53.473Z,-2.66
2018-03-01T06:32:33.871Z,-2.46
2018-03-01T06:33:14.202Z,-2.33
2018-03-01T06:33:54.567Z,-2.47
2018-03-01T06:34:34.990Z,-2.48
2018-03-01T06:35:15.418Z,-2.61
2018-03-01T06:38:08.465Z,-2.59
2018-03-01T06:40:26.339Z,-2.4
2018-03-01T06:42:30.222Z,-2.84
2018-03-01T06:44:04.018Z,-2.51
2018-03-01T06:44:46.788Z,-2.74
2018-03-01T06:45:28.248Z,-2.64
2018-03-01T06:46:08.686Z,-2.43
2018-03-01T06:46:49.215Z,-2.11
2018-03-01T06:47:30.088Z,-1.96
2018-03-01T06:48:11.341Z,-1.77
2018-03-01T06:48:52.576Z,-1.5
2018-03-01T06:49:33.178Z,-1.47
2018-03-01T06:50:13.318Z,-1.32
2018-03-01T06:50:54.373Z,-1.33
2018-03-01T06:51:35.037Z,-1.2
2018-03-01T06:52:15.438Z,-1.11
2018-03-01T06:52:55.784Z,-0.97
2018-03-01T06:53:36.332Z,-0.89
2018-03-01T06:54:17.837Z,-1.14
2018-03-01T06:54:58.510Z,-1.28
2018-03-01T06:55:39.603Z,-1.28
2018-03-01T06:56:21.212Z,-1.47
2018-03-01T06:57:01.656Z,-1.53
2018-03-01T06:57:42.516Z,-1.71
2018-03-01T06:58:22.941Z,-1.92
2018-03-01T06:59:03.517Z,-1.88
2018-03-01T06:59:43.852Z,-1.67
2018-03-01T07:00:24.239Z,-1.5
2018-03-01T07:01:04.660Z,-1.35
2018-03-01T07:01:45.448Z,-1.29
2018-03-01T07:02:25.566Z,-1.15
2018-03-01T07:03:05.968Z,-1.43
2018-03-01T07:03:46.520Z,-1.71
2018-03-01T07:04:27.292Z,-2.01
2018-03-01T07:05:07.623Z,-2.18
2018-03-01T07:05:48.076Z,-2.24
2018-03-01T07:06:28.537Z,-2.14
2018-03-01T07:07:08.857Z,-2.13
2018-03-01T07:07:49.603Z,-2.01
2018-03-01T07:08:30.209Z,-1.83
2018-03-01T07:09:11.408Z,-1.68
2018-03-01T07:09:52.023Z,-1.54
2018-03-01T07:11:59.940Z,-1.14
2018-03-01T07:12:41.222Z,-1.23
2018-03-01T07:13:21.496Z,-1.36
2018-03-01T07:14:16.793Z,-1.65
2018-03-01T07:15:26.887Z,-2.14
2018-03-01T07:16:30.867Z,-2.11
2018-03-01T07:18:34.745Z,-2.64
2018-03-01T07:19:24.388Z,-2.79
2018-03-01T07:20:05.009Z,-2.97
2018-03-01T07:20:46.763Z,-2.59
2018-03-01T07:21:26.581Z,-2.37
2018-03-01T07:22:07.953Z,-2.13
2018-03-01T07:22:49.628Z,-1.92
2018-03-01T07:23:30.199Z,-1.96
2018-03-01T07:24:10.848Z,-1.82
2018-03-01T07:24:51.451Z,-1.51
2018-03-01T07:25:31.652Z,-1.26
2018-03-01T07:26:12.151Z,-1.15
2018-03-01T07:26:52.560Z,-0.97
2018-03-01T07:27:33.033Z,-0.71
2018-03-01T07:28:13.657Z,-0.53
2018-03-01T07:28:54.740Z,-0.53
2018-03-01T07:29:35.358Z,-0.59
2018-03-01T07:30:15.723Z,-0.52
2018-03-01T07:30:56.201Z,-0.58
2018-03-01T07:31:36.682Z,-0.78
2018-03-01T07:32:17.279Z,-0.85
2018-03-01T07:32:58.217Z,-1.11
2018-03-01T07:33:38.822Z,-1.23
2018-03-01T07:34:19.365Z,-1.07
2018-03-01T07:34:59.802Z,-1.07
2018-03-01T07:35:42.487Z,-1.18
2018-03-01T07:36:20.674Z,-1.44
2018-03-01T07:37:01.433Z,-1.72
2018-03-01T07:37:41.950Z,-1.54
2018-03-01T07:38:22.240Z,-1.67
2018-03-01T07:39:02.821Z,-1.47
2018-03-01T07:39:43.257Z,-1.32
2018-03-01T07:40:23.808Z,-1.5
2018-03-01T07:41:04.577Z,-1.67
2018-03-01T07:41:45.000Z,-1.59
2018-03-01T07:42:25.734Z,-1.41
2018-03-01T07:43:06.216Z,-1.29
2018-03-01T07:43:46.778Z,-1.26
2018-03-01T07:44:27.187Z,-1.23
2018-03-01T07:45:07.967Z,-1
2018-03-01T07:45:48.657Z,-1.05
2018-03-01T07:46:29.108Z,-1
2018-03-01T07:47:09.540Z,-0.89
2018-03-01T07:47:49.998Z,-0.89
2018-03-01T07:48:30.383Z,-0.78
2018-03-01T07:49:11.526Z,-1.15
2018-03-01T07:49:51.266Z,-1.41
2018-03-01T07:50:31.664Z,-1.29
2018-03-01T07:51:12.772Z,-1.28
2018-03-01T07:51:52.965Z,-1.28
2018-03-01T07:58:59.012Z,-1.77
2018-03-01T08:01:06.193Z,-1.39
2018-03-01T08:03:12.610Z,-1.32
2018-03-01T08:05:06.488Z,-1.21
2018-03-01T08:05:45.715Z,-1.17
2018-03-01T08:06:25.927Z,-1
2018-03-01T08:07:12.321Z,-0.85
2018-03-01T08:07:52.680Z,-0.86
2018-03-01T08:08:34.327Z,-0.95
2018-03-01T08:09:14.649Z,-1.2
2018-03-01T08:09:55.074Z,-1.38
2018-03-01T08:10:36.164Z,-1.51
2018-03-01T08:11:16.724Z,-1.54
2018-03-01T08:11:57.201Z,-1.75
2018-03-01T08:12:37.561Z,-1.96
2018-03-01T08:13:18.071Z,-2.14
2018-03-01T08:13:58.551Z,-2.24
2018-03-01T08:14:38.965Z,-2.44
2018-03-01T08:15:19.645Z,-2.5
2018-03-01T08:16:00.012Z,-2.53
2018-03-01T08:16:40.517Z,-2.84
2018-03-01T08:17:21.751Z,-3.19
2018-03-01T08:18:02.299Z,-3.15
2018-03-01T08:18:42.649Z,-3.05
2018-03-01T08:19:24.182Z,-3.15
2018-03-01T08:20:04.970Z,-3.15
2018-03-01T08:20:45.477Z,-3.02
2018-03-01T08:21:25.984Z,-2.69
2018-03-01T08:22:06.453Z,-2.56
2018-03-01T08:22:46.999Z,-2.25
2018-03-01T08:23:27.551Z,-2
2018-03-01T08:24:07.933Z,-2.01
2018-03-01T08:24:48.482Z,-1.7
2018-03-01T08:25:29.092Z,-1.49
2018-03-01T08:26:09.628Z,-1.61
2018-03-01T08:26:49.958Z,-1.21
2018-03-01T08:27:31.376Z,-0.99
2018-03-01T08:28:12.379Z,-0.7
2018-03-01T08:28:53.254Z,-0.58
2018-03-01T08:29:33.982Z,-0.53
2018-03-01T08:30:15.253Z,-0.34
2018-03-01T08:30:55.883Z,-0.3
2018-03-01T08:31:36.082Z,-0.24
2018-03-01T08:32:17.231Z,0.1
2018-03-01T08:32:57.543Z,0.34
2018-03-01T08:33:38.289Z,0.49
2018-03-01T08:34:18.861Z,0.6
2018-03-01T08:35:01.194Z,0.8
2018-03-01T08:35:41.668Z,0.7
2018-03-01T08:36:22.723Z,0.17
2018-03-01T08:37:03.245Z,-0.13
2018-03-01T08:37:43.661Z,-0.32
2018-03-01T08:38:24.834Z,-0.76
2018-03-01T08:39:04.501Z,-0.59
2018-03-01T08:39:45.756Z,-0.34
2018-03-01T08:40:26.488Z,-0.24
2018-03-01T08:41:07.645Z,-0.03
2018-03-01T08:41:48.184Z,0.08
2018-03-01T08:42:28.748Z,-0.5
2018-03-01T08:43:10.077Z,-0.55
2018-03-01T08:43:50.831Z,-0.56
2018-03-01T08:44:32.280Z,-0.96
2018-03-01T08:45:13.923Z,-0.93
2018-03-01T08:45:54.906Z,-0.74
2018-03-01T08:46:35.321Z,-0.47
2018-03-01T08:47:15.931Z,-0.42
2018-03-01T08:47:56.974Z,-0.24
2018-03-01T08:48:37.334Z,-0.12
2018-03-01T08:49:18.277Z,0.07
2018-03-01T08:49:58.493Z,-0.05
2018-03-01T08:50:38.993Z,-0.09
2018-03-01T08:51:19.409Z,-0.27
2018-03-01T08:52:00.556Z,-0.5
2018-03-01T08:52:41.990Z,-0.55
2018-03-01T08:54:40.755Z,-1.43
2018-03-01T08:55:25.488Z,-1.9
2018-03-01T08:56:05.796Z,-1.8
2018-03-01T08:56:46.453Z,-1.72
2018-03-01T08:57:30.173Z,-1.98
2018-03-01T08:58:14.107Z,-2.11
2018-03-01T08:58:54.979Z,-2.26
2018-03-01T08:59:35.407Z,-1.93
2018-03-01T09:00:15.810Z,-1.86
2018-03-01T09:00:56.347Z,-1.93
2018-03-01T09:01:38.284Z,-2.22
2018-03-01T09:02:18.783Z,-2.21
2018-03-01T09:03:00.744Z,-1.85
2018-03-01T09:03:41.569Z,-1.82
2018-03-01T09:04:22.240Z,-1.92
2018-03-01T09:05:02.944Z,-2.11
2018-03-01T09:05:43.542Z,-2.11
2018-03-01T09:06:24.253Z,-1.93
2018-03-01T09:07:05.302Z,-1.85
2018-03-01T09:07:45.792Z,-1.74
2018-03-01T09:08:26.380Z,-1.74
2018-03-01T09:09:06.865Z,-1.67
2018-03-01T09:09:47.535Z,-1.82
2018-03-01T09:10:27.927Z,-2.04
2018-03-01T09:11:08.702Z,-2.1
2018-03-01T09:11:48.999Z,-2.06
2018-03-01T09:12:30.083Z,-1.93
2018-03-01T09:13:11.175Z,-1.53
2018-03-01T09:13:51.623Z,-1.44
2018-03-01T09:14:32.819Z,-1.32
2018-03-01T09:15:15.693Z,-1.36
2018-03-01T09:15:56.121Z,-1.56
2018-03-01T09:16:36.548Z,-1.41
2018-03-01T09:17:17.441Z,-1.21
2018-03-01T09:17:59.028Z,-1.03
2018-03-01T09:18:41.981Z,-0.99
2018-03-01T09:19:22.240Z,-1.14
2018-03-01T09:20:02.923Z,-1.18
2018-03-01T09:20:43.393Z,-1.2
2018-03-01T09:21:24.151Z,-1.32
2018-03-01T09:22:05.230Z,-1.29
2018-03-01T09:22:46.576Z,-1.17
2018-03-01T09:23:27.126Z,-1.18
2018-03-01T09:24:08.065Z,-1.21
2018-03-01T09:24:48.732Z,-1.08
2018-03-01T09:25:29.718Z,-1.17
2018-03-01T09:26:10.628Z,-1.07
2018-03-01T09:26:51.332Z,-0.65
2018-03-01T09:27:31.942Z,-0.49
2018-03-01T09:28:12.356Z,-0.01
2018-03-01T09:28:52.964Z,-0.05
2018-03-01T09:29:33.812Z,-0.05
2018-03-01T09:30:15.508Z,0.2
2018-03-01T09:30:55.567Z,0.3
2018-03-01T09:31:36.105Z,0.41
2018-03-01T09:32:17.077Z,0.52
2018-03-01T09:34:07.204Z,0.72
2018-03-01T09:36:41.105Z,-0.44
2018-03-01T09:38:30.614Z,-0.52
2018-03-01T09:42:48.713Z,-1.38
2018-03-01T09:44:27.970Z,-1.11
2018-03-01T09:45:38.592Z,-0.86
2018-03-01T09:47:42.559Z,-1.14
2018-03-01T09:48:23.744Z,-1.21
2018-03-01T09:49:04.312Z,-0.99
2018-03-01T09:49:44.564Z,-1
2018-03-01T09:50:24.923Z,-0.7
2018-03-01T09:51:05.311Z,-0.59
2018-03-01T09:51:45.840Z,-0.74
2018-03-01T09:52:26.284Z,-0.39
2018-03-01T09:53:06.843Z,-0.31
2018-03-01T09:53:47.252Z,-0.34
2018-03-01T09:54:27.658Z,-0.31
2018-03-01T09:55:08.061Z,-0.27
2018-03-01T09:55:49.028Z,-0.32
2018-03-01T09:56:29.173Z,-0.32
2018-03-01T09:57:10.377Z,-0.16
2018-03-01T09:57:50.155Z,-0.06
2018-03-01T09:58:30.571Z,0.01
2018-03-01T09:59:11.940Z,0.1
2018-03-01T09:59:51.795Z,0.17
2018-03-01T10:00:32.432Z,0.34
2018-03-01T10:01:12.941Z,0.31
2018-03-01T10:01:53.514Z,0.22
2018-03-01T10:02:34.292Z,0.41
2018-03-01T10:03:14.585Z,0.56
2018-03-01T10:03:54.943Z,0.71
2018-03-01T10:04:35.401Z,0.96
2018-03-01T10:05:15.805Z,1.04
2018-03-01T10:05:56.295Z,1.26
2018-03-01T10:06:36.823Z,1.43
2018-03-01T10:07:17.394Z,1.67
2018-03-01T10:07:57.935Z,1.67
2018-03-01T10:08:38.351Z,1.53
2018-03-01T10:46:33.646Z,2.51
2018-03-01T10:47:27.673Z,2.29
2018-03-01T10:48:15.448Z,1.79
2018-03-01T10:48:58.720Z,1.67
2018-03-01T10:49:39.443Z,1.49
2018-03-01T10:50:20.383Z,1.5
2018-03-01T10:51:00.932Z,1.72
2018-03-01T10:51:41.812Z,1.89
2018-03-01T10:52:22.881Z,1.67
2018-03-01T10:53:03.106Z,1.89
2018-03-01T10:53:43.909Z,2.2
2018-03-01T10:54:24.580Z,2.38
2018-03-01T10:55:05.426Z,2.56
2018-03-01T10:55:45.959Z,2.61
2018-03-01T10:56:26.515Z,2.37
2018-03-01T10:57:06.807Z,2.5